sensor_id;sensor_type;location;lat;lon;timestamp;pressure;altitude;pressure_sealevel;temperature;humidity
49216;BME280;45943;53.148;8.204;2023-01-28T00:02:00;103069.44;;;4.58;100.00
49216;BME280;45943;53.148;8.204;2023-01-28T00:04:26;103072.13;;;4.57;100.00
49216;BME280;45943;53.148;8.204;2023-01-28T00:06:52;103072.41;;;4.42;100.00
49216;BME280;45943;53.148;8.204;2023-01-28T00:09:18;103059.34;;;4.31;100.00
49216;BME280;45943;53.148;8.204;2023-01-28T00:11:44;103070.84;;;4.33;100.00
49216;BME280;45943;53.148;8.204;2023-01-28T00:14:10;103059.22;;;4.37;100.00
49216;BME280;45943;53.148;8.204;2023-01-28T00:16:37;103062.66;;;4.42;100.00
49216;BME280;45943;53.148;8.204;2023-01-28T00:19:03;103062.59;;;4.47;100.00
49216;BME280;45943;53.148;8.204;2023-01-28T00:21:29;103058.19;;;4.46;100.00
49216;BME280;45943;53.148;8.204;2023-01-28T00:23:55;103053.03;;;4.37;100.00
49216;BME280;45943;53.148;8.204;2023-01-28T00:26:21;103053.13;;;4.30;100.00
49216;BME280;45943;53.148;8.204;2023-01-28T00:28:50;103046.91;;;4.31;100.00
49216;BME280;45943;53.148;8.204;2023-01-28T00:31:22;103047.91;;;4.27;100.00
49216;BME280;45943;53.148;8.204;2023-01-28T00:33:50;103049.03;;;4.14;100.00
49216;BME280;45943;53.148;8.204;2023-01-28T00:36:17;103050.78;;;4.15;100.00
49216;BME280;45943;53.148;8.204;2023-01-28T00:38:51;103048.91;;;4.20;100.00
49216;BME280;45943;53.148;8.204;2023-01-28T00:41:19;103051.50;;;4.25;100.00
49216;BME280;45943;53.148;8.204;2023-01-28T00:43:47;103054.88;;;4.33;100.00
49216;BME280;45943;53.148;8.204;2023-01-28T00:46:14;103053.97;;;4.34;100.00
49216;BME280;45943;53.148;8.204;2023-01-28T00:48:41;103054.78;;;4.38;100.00
49216;BME280;45943;53.148;8.204;2023-01-28T00:51:11;103053.91;;;4.37;100.00
49216;BME280;45943;53.148;8.204;2023-01-28T00:53:38;103061.00;;;4.37;100.00
49216;BME280;45943;53.148;8.204;2023-01-28T00:56:05;103063.75;;;4.34;100.00
49216;BME280;45943;53.148;8.204;2023-01-28T00:58:32;103055.75;;;4.34;100.00
49216;BME280;45943;53.148;8.204;2023-01-28T01:01:12;103055.75;;;4.34;100.00
49216;BME280;45943;53.148;8.204;2023-01-28T01:03:43;103051.41;;;4.29;100.00
49216;BME280;45943;53.148;8.204;2023-01-28T01:06:10;103054.06;;;4.29;100.00
49216;BME280;45943;53.148;8.204;2023-01-28T01:08:37;103054.00;;;4.31;100.00
49216;BME280;45943;53.148;8.204;2023-01-28T01:11:08;103052.22;;;4.31;100.00
49216;BME280;45943;53.148;8.204;2023-01-28T01:13:35;103056.78;;;4.26;100.00
49216;BME280;45943;53.148;8.204;2023-01-28T01:16:06;103050.66;;;4.21;100.00
49216;BME280;45943;53.148;8.204;2023-01-28T01:18:34;103058.63;;;4.23;100.00
49216;BME280;45943;53.148;8.204;2023-01-28T01:21:01;103061.25;;;4.24;100.00
49216;BME280;45943;53.148;8.204;2023-01-28T01:23:29;103063.03;;;4.24;100.00
49216;BME280;45943;53.148;8.204;2023-01-28T01:25:56;103061.59;;;4.06;100.00
49216;BME280;45943;53.148;8.204;2023-01-28T01:28:23;103060.06;;;3.91;100.00
49216;BME280;45943;53.148;8.204;2023-01-28T01:30:49;103054.19;;;3.71;100.00
49216;BME280;45943;53.148;8.204;2023-01-28T01:33:15;103048.88;;;3.72;100.00
49216;BME280;45943;53.148;8.204;2023-01-28T01:35:41;103048.03;;;3.70;100.00
49216;BME280;45943;53.148;8.204;2023-01-28T01:38:07;103047.97;;;3.75;100.00
49216;BME280;45943;53.148;8.204;2023-01-28T01:40:33;103053.13;;;3.83;100.00
49216;BME280;45943;53.148;8.204;2023-01-28T01:42:59;103052.16;;;3.88;100.00
49216;BME280;45943;53.148;8.204;2023-01-28T01:45:25;103055.63;;;3.92;100.00
49216;BME280;45943;53.148;8.204;2023-01-28T01:48:05;103056.56;;;3.89;100.00
49216;BME280;45943;53.148;8.204;2023-01-28T01:50:42;103061.13;;;3.81;100.00
49216;BME280;45943;53.148;8.204;2023-01-28T01:53:19;103060.25;;;3.81;100.00
49216;BME280;45943;53.148;8.204;2023-01-28T01:55:49;103056.78;;;3.77;100.00
49216;BME280;45943;53.148;8.204;2023-01-28T01:58:18;103063.78;;;3.80;100.00
49216;BME280;45943;53.148;8.204;2023-01-28T02:00:48;103062.84;;;3.85;100.00
49216;BME280;45943;53.148;8.204;2023-01-28T02:03:14;103069.94;;;3.82;100.00
49216;BME280;45943;53.148;8.204;2023-01-28T02:05:44;103065.53;;;3.81;100.00
49216;BME280;45943;53.148;8.204;2023-01-28T02:08:10;103073.56;;;3.78;100.00
49216;BME280;45943;53.148;8.204;2023-01-28T02:11:04;103067.72;;;3.57;100.00
49216;BME280;45943;53.148;8.204;2023-01-28T02:13:33;103059.69;;;3.60;100.00
49216;BME280;45943;53.148;8.204;2023-01-28T02:16:04;103064.94;;;3.63;100.00
49216;BME280;45943;53.148;8.204;2023-01-28T02:18:31;103060.53;;;3.64;100.00
49216;BME280;45943;53.148;8.204;2023-01-28T02:29:00;103071.06;;;3.68;100.00
49216;BME280;45943;53.148;8.204;2023-01-28T02:32:02;103070.13;;;3.71;100.00
49216;BME280;45943;53.148;8.204;2023-01-28T02:34:37;103065.66;;;3.73;100.00
49216;BME280;45943;53.148;8.204;2023-01-28T02:37:20;103077.09;;;3.78;100.00
49216;BME280;45943;53.148;8.204;2023-01-28T02:39:50;103067.25;;;3.85;100.00
49216;BME280;45943;53.148;8.204;2023-01-28T02:42:31;103067.25;;;3.83;100.00
49216;BME280;45943;53.148;8.204;2023-01-28T02:45:00;103055.88;;;3.78;100.00
49216;BME280;45943;53.148;8.204;2023-01-28T02:47:25;103056.81;;;3.76;100.00
49216;BME280;45943;53.148;8.204;2023-01-28T02:50:11;103057.00;;;3.62;100.00
49216;BME280;45943;53.148;8.204;2023-01-28T02:52:44;103052.69;;;3.56;100.00
49216;BME280;45943;53.148;8.204;2023-01-28T02:55:38;103048.28;;;3.55;100.00
49216;BME280;45943;53.148;8.204;2023-01-28T02:58:18;103054.38;;;3.60;100.00
49216;BME280;45943;53.148;8.204;2023-01-28T03:06:18;103054.22;;;3.69;100.00
49216;BME280;45943;53.148;8.204;2023-01-28T03:08:52;103053.34;;;3.69;100.00
49216;BME280;45943;53.148;8.204;2023-01-28T03:11:41;103054.31;;;3.63;100.00
49216;BME280;45943;53.148;8.204;2023-01-28T03:14:29;103052.78;;;3.50;100.00
49216;BME280;45943;53.148;8.204;2023-01-28T03:17:19;103050.28;;;3.39;100.00
49216;BME280;45943;53.148;8.204;2023-01-28T03:20:13;103067.13;;;3.38;100.00
49216;BME280;45943;53.148;8.204;2023-01-28T03:23:00;103083.03;;;3.38;100.00
49216;BME280;45943;53.148;8.204;2023-01-28T03:25:50;103069.81;;;3.35;100.00
49216;BME280;45943;53.148;8.204;2023-01-28T03:28:40;103076.03;;;3.33;100.00
49216;BME280;45943;53.148;8.204;2023-01-28T03:31:28;103070.78;;;3.30;100.00
49216;BME280;45943;53.148;8.204;2023-01-28T03:34:13;103070.81;;;3.27;100.00
49216;BME280;45943;53.148;8.204;2023-01-28T03:36:58;103073.47;;;3.27;100.00
49216;BME280;45943;53.148;8.204;2023-01-28T03:39:26;103069.97;;;3.23;100.00
49216;BME280;45943;53.148;8.204;2023-01-28T03:41:54;103063.88;;;3.18;100.00
49216;BME280;45943;53.148;8.204;2023-01-28T03:44:24;103067.38;;;3.20;100.00
49216;BME280;45943;53.148;8.204;2023-01-28T03:47:10;103070.00;;;3.22;100.00
49216;BME280;45943;53.148;8.204;2023-01-28T03:49:38;103071.78;;;3.21;100.00
49216;BME280;45943;53.148;8.204;2023-01-28T03:52:05;103068.25;;;3.21;100.00
49216;BME280;45943;53.148;8.204;2023-01-28T03:54:31;103070.91;;;3.21;100.00
49216;BME280;45943;53.148;8.204;2023-01-28T03:56:57;103063.91;;;3.16;100.00
49216;BME280;45943;53.148;8.204;2023-01-28T03:59:23;103063.13;;;3.08;100.00
49216;BME280;45943;53.148;8.204;2023-01-28T04:01:49;103057.88;;;3.04;100.00
49216;BME280;45943;53.148;8.204;2023-01-28T04:04:15;103059.66;;;3.05;100.00
49216;BME280;45943;53.148;8.204;2023-01-28T04:06:52;103055.16;;;3.08;100.00
49216;BME280;45943;53.148;8.204;2023-01-28T04:09:20;103057.81;;;3.08;100.00
49216;BME280;45943;53.148;8.204;2023-01-28T04:11:47;103070.25;;;3.05;100.00
49216;BME280;45943;53.148;8.204;2023-01-28T04:14:13;103064.94;;;3.05;100.00
49216;BME280;45943;53.148;8.204;2023-01-28T04:16:40;103064.13;;;3.00;100.00
49216;BME280;45943;53.148;8.204;2023-01-28T04:19:10;103065.03;;;2.97;100.00
49216;BME280;45943;53.148;8.204;2023-01-28T04:21:39;103071.28;;;2.93;100.00
49216;BME280;45943;53.148;8.204;2023-01-28T04:24:06;103067.84;;;2.85;100.00
49216;BME280;45943;53.148;8.204;2023-01-28T04:26:32;103073.22;;;2.79;100.00
49216;BME280;45943;53.148;8.204;2023-01-28T04:28:58;103079.44;;;2.78;100.00
49216;BME280;45943;53.148;8.204;2023-01-28T04:31:24;103075.88;;;2.79;100.00
49216;BME280;45943;53.148;8.204;2023-01-28T04:33:50;103072.41;;;2.72;100.00
49216;BME280;45943;53.148;8.204;2023-01-28T04:36:16;103065.50;;;2.61;100.00
49216;BME280;45943;53.148;8.204;2023-01-28T04:38:42;103069.91;;;2.60;100.00
49216;BME280;45943;53.148;8.204;2023-01-28T04:41:09;103080.47;;;2.63;100.00
49216;BME280;45943;53.148;8.204;2023-01-28T04:43:35;103072.50;;;2.65;100.00
49216;BME280;45943;53.148;8.204;2023-01-28T04:46:01;103073.41;;;2.64;100.00
49216;BME280;45943;53.148;8.204;2023-01-28T04:48:27;103078.78;;;2.57;100.00
49216;BME280;45943;53.148;8.204;2023-01-28T04:50:55;103077.00;;;2.58;100.00
49216;BME280;45943;53.148;8.204;2023-01-28T04:53:21;103067.31;;;2.54;100.00
49216;BME280;45943;53.148;8.204;2023-01-28T04:55:47;103071.78;;;2.52;100.00
49216;BME280;45943;53.148;8.204;2023-01-28T04:58:13;103065.53;;;2.57;100.00
49216;BME280;45943;53.148;8.204;2023-01-28T05:00:38;103069.00;;;2.63;100.00
49216;BME280;45943;53.148;8.204;2023-01-28T05:03:04;103059.22;;;2.69;100.00
49216;BME280;45943;53.148;8.204;2023-01-28T05:05:30;103052.06;;;2.77;100.00
49216;BME280;45943;53.148;8.204;2023-01-28T05:07:57;103037.81;;;2.83;100.00
49216;BME280;45943;53.148;8.204;2023-01-28T05:10:23;103033.59;;;2.70;100.00
49216;BME280;45943;53.148;8.204;2023-01-28T05:12:51;103028.38;;;2.62;100.00
49216;BME280;45943;53.148;8.204;2023-01-28T05:15:17;103047.81;;;2.61;100.00
49216;BME280;45943;53.148;8.204;2023-01-28T05:17:43;103039.84;;;2.63;100.00
49216;BME280;45943;53.148;8.204;2023-01-28T05:20:10;103039.81;;;2.67;100.00
49216;BME280;45943;53.148;8.204;2023-01-28T05:22:37;103031.88;;;2.67;100.00
49216;BME280;45943;53.148;8.204;2023-01-28T05:25:04;103033.69;;;2.61;100.00
49216;BME280;45943;53.148;8.204;2023-01-28T05:27:32;103031.06;;;2.61;100.00
49216;BME280;45943;53.148;8.204;2023-01-28T05:29:58;103031.91;;;2.63;100.00
49216;BME280;45943;53.148;8.204;2023-01-28T05:32:25;103022.16;;;2.65;100.00
49216;BME280;45943;53.148;8.204;2023-01-28T05:34:51;103023.91;;;2.67;100.00
49216;BME280;45943;53.148;8.204;2023-01-28T05:37:17;103018.63;;;2.66;100.00
49216;BME280;45943;53.148;8.204;2023-01-28T05:39:43;103023.06;;;2.64;100.00
49216;BME280;45943;53.148;8.204;2023-01-28T05:42:09;103026.69;;;2.56;100.00
49216;BME280;45943;53.148;8.204;2023-01-28T05:44:36;103029.34;;;2.56;100.00
49216;BME280;45943;53.148;8.204;2023-01-28T05:47:02;103026.69;;;2.56;100.00
49216;BME280;45943;53.148;8.204;2023-01-28T05:49:28;103028.47;;;2.54;100.00
49216;BME280;45943;53.148;8.204;2023-01-28T05:51:54;103028.53;;;2.50;100.00
49216;BME280;45943;53.148;8.204;2023-01-28T05:54:21;103031.22;;;2.47;100.00
49216;BME280;45943;53.148;8.204;2023-01-28T05:56:46;103019.81;;;2.40;100.00
49216;BME280;45943;53.148;8.204;2023-01-28T05:59:13;103018.16;;;2.30;100.00
49216;BME280;45943;53.148;8.204;2023-01-28T06:01:39;103019.06;;;2.29;100.00
49216;BME280;45943;53.148;8.204;2023-01-28T06:04:06;103028.69;;;2.35;100.00
49216;BME280;45943;53.148;8.204;2023-01-28T06:06:32;103029.53;;;2.41;100.00
49216;BME280;45943;53.148;8.204;2023-01-28T06:08:57;103024.16;;;2.46;100.00
49216;BME280;45943;53.148;8.204;2023-01-28T06:11:23;103023.25;;;2.48;100.00
49216;BME280;45943;53.148;8.204;2023-01-28T06:13:49;103019.78;;;2.43;100.00
49216;BME280;45943;53.148;8.204;2023-01-28T06:16:15;103021.69;;;2.30;100.00
49216;BME280;45943;53.148;8.204;2023-01-28T06:18:41;103012.94;;;2.27;100.00
49216;BME280;45943;53.148;8.204;2023-01-28T06:21:07;103021.69;;;2.30;100.00
49216;BME280;45943;53.148;8.204;2023-01-28T06:23:33;103023.50;;;2.28;100.00
49216;BME280;45943;53.148;8.204;2023-01-28T06:25:59;103023.19;;;2.53;100.00
49216;BME280;45943;53.148;8.204;2023-01-28T06:28:25;103010.81;;;3.20;100.00
49216;BME280;45943;53.148;8.204;2023-01-28T06:30:51;103006.44;;;3.71;100.00
49216;BME280;45943;53.148;8.204;2023-01-28T06:33:18;103010.97;;;4.12;100.00
49216;BME280;45943;53.148;8.204;2023-01-28T06:35:45;103022.84;;;4.41;100.00
49216;BME280;45943;53.148;8.204;2023-01-28T06:38:11;103024.25;;;4.58;100.00
49216;BME280;45943;53.148;8.204;2023-01-28T06:40:37;103017.78;;;4.70;100.00
49216;BME280;45943;53.148;8.204;2023-01-28T06:43:04;103018.47;;;4.80;100.00
49216;BME280;45943;53.148;8.204;2023-01-28T06:45:31;103025.53;;;4.81;100.00
49216;BME280;45943;53.148;8.204;2023-01-28T06:47:58;103023.66;;;4.86;100.00
49216;BME280;45943;53.148;8.204;2023-01-28T06:50:24;103020.97;;;4.87;100.00
49216;BME280;45943;53.148;8.204;2023-01-28T06:52:50;103028.88;;;4.90;100.00
49216;BME280;45943;53.148;8.204;2023-01-28T06:55:16;103031.50;;;4.94;100.00
49216;BME280;45943;53.148;8.204;2023-01-28T06:57:42;103027.97;;;4.92;100.00
49216;BME280;45943;53.148;8.204;2023-01-28T07:00:10;103026.16;;;4.94;100.00
49216;BME280;45943;53.148;8.204;2023-01-28T07:02:39;103024.41;;;4.93;100.00
49216;BME280;45943;53.148;8.204;2023-01-28T07:05:05;103028.19;;;4.81;100.00
49216;BME280;45943;53.148;8.204;2023-01-28T07:07:31;103038.03;;;4.77;100.00
49216;BME280;45943;53.148;8.204;2023-01-28T07:09:57;103042.38;;;4.83;100.00
49216;BME280;45943;53.148;8.204;2023-01-28T07:12:23;103042.22;;;4.89;100.00
49216;BME280;45943;53.148;8.204;2023-01-28T07:14:49;103037.72;;;4.93;100.00
49216;BME280;45943;53.148;8.204;2023-01-28T07:17:15;103050.94;;;4.96;100.00
49216;BME280;45943;53.148;8.204;2023-01-28T07:19:41;103056.25;;;4.96;100.00
49216;BME280;45943;53.148;8.204;2023-01-28T07:22:07;103056.25;;;4.96;100.00
49216;BME280;45943;53.148;8.204;2023-01-28T07:24:33;103058.91;;;4.96;100.00
49216;BME280;45943;53.148;8.204;2023-01-28T07:26:59;103067.81;;;4.95;100.00
49216;BME280;45943;53.148;8.204;2023-01-28T07:29:25;103070.41;;;4.98;100.00
49216;BME280;45943;53.148;8.204;2023-01-28T07:31:51;103070.34;;;4.99;100.00
49216;BME280;45943;53.148;8.204;2023-01-28T07:34:17;103074.81;;;4.99;100.00
49216;BME280;45943;53.148;8.204;2023-01-28T07:36:43;103081.94;;;4.97;100.00
49216;BME280;45943;53.148;8.204;2023-01-28T07:39:09;103079.31;;;4.95;100.00
49216;BME280;45943;53.148;8.204;2023-01-28T07:41:35;103077.56;;;4.94;100.00
49216;BME280;45943;53.148;8.204;2023-01-28T07:44:01;103084.63;;;4.95;100.00
49216;BME280;45943;53.148;8.204;2023-01-28T07:46:27;103101.50;;;4.94;100.00
49216;BME280;45943;53.148;8.204;2023-01-28T07:48:53;103093.56;;;4.91;100.00
49216;BME280;45943;53.148;8.204;2023-01-28T07:51:19;103095.34;;;4.92;100.00
49216;BME280;45943;53.148;8.204;2023-01-28T07:53:45;103087.38;;;4.90;100.00
49216;BME280;45943;53.148;8.204;2023-01-28T07:56:11;103093.72;;;4.85;100.00
49216;BME280;45943;53.148;8.204;2023-01-28T07:58:37;103087.56;;;4.81;100.00
49216;BME280;45943;53.148;8.204;2023-01-28T08:01:03;103088.44;;;4.83;100.00
49216;BME280;45943;53.148;8.204;2023-01-28T08:03:29;103072.41;;;4.86;100.00
49216;BME280;45943;53.148;8.204;2023-01-28T08:05:55;103088.38;;;4.86;100.00
49216;BME280;45943;53.148;8.204;2023-01-28T08:08:22;103082.13;;;4.87;100.00
49216;BME280;45943;53.148;8.204;2023-01-28T08:10:49;103083.91;;;4.87;100.00
49216;BME280;45943;53.148;8.204;2023-01-28T08:13:16;103092.78;;;4.87;100.00
49216;BME280;45943;53.148;8.204;2023-01-28T08:15:43;103086.47;;;4.92;100.00
49216;BME280;45943;53.148;8.204;2023-01-28T08:18:11;103089.25;;;4.87;100.00
49216;BME280;45943;53.148;8.204;2023-01-28T08:20:38;103090.22;;;4.83;100.00
49216;BME280;45943;53.148;8.204;2023-01-28T08:23:08;103088.50;;;4.79;100.00
49216;BME280;45943;53.148;8.204;2023-01-28T08:25:37;103091.13;;;4.80;100.00
49216;BME280;45943;53.148;8.204;2023-01-28T08:28:04;103092.84;;;4.84;100.00
49216;BME280;45943;53.148;8.204;2023-01-28T08:30:31;103094.44;;;4.92;100.00
49216;BME280;45943;53.148;8.204;2023-01-28T08:32:57;103090.03;;;4.92;100.00
49216;BME280;45943;53.148;8.204;2023-01-28T08:35:25;103093.09;;;4.71;100.00
49216;BME280;45943;53.148;8.204;2023-01-28T08:37:52;103090.72;;;4.57;100.00
49216;BME280;45943;53.148;8.204;2023-01-28T08:40:19;103094.84;;;4.27;100.00
49216;BME280;45943;53.148;8.204;2023-01-28T08:42:46;103087.28;;;4.04;100.00
49216;BME280;45943;53.148;8.204;2023-01-28T08:45:16;103090.84;;;4.01;100.00
49216;BME280;45943;53.148;8.204;2023-01-28T08:47:46;103086.16;;;4.17;100.00
49216;BME280;45943;53.148;8.204;2023-01-28T08:50:14;103100.06;;;4.33;100.00
49216;BME280;45943;53.148;8.204;2023-01-28T08:52:40;103121.00;;;4.48;100.00
49216;BME280;45943;53.148;8.204;2023-01-28T08:55:09;103129.91;;;4.47;100.00
49216;BME280;45943;53.148;8.204;2023-01-28T08:57:36;103134.94;;;4.61;100.00
49216;BME280;45943;53.148;8.204;2023-01-28T09:00:02;103135.69;;;4.69;100.00
49216;BME280;45943;53.148;8.204;2023-01-28T09:02:29;103139.03;;;4.79;100.00
49216;BME280;45943;53.148;8.204;2023-01-28T09:04:55;103147.84;;;4.82;100.00
49216;BME280;45943;53.148;8.204;2023-01-28T09:07:21;103147.81;;;4.84;100.00
49216;BME280;45943;53.148;8.204;2023-01-28T09:09:50;103145.03;;;4.88;100.00
49216;BME280;45943;53.148;8.204;2023-01-28T09:12:16;103142.13;;;5.01;100.00
49216;BME280;45943;53.148;8.204;2023-01-28T09:14:42;103142.13;;;5.01;100.00
49216;BME280;45943;53.148;8.204;2023-01-28T09:17:08;103146.91;;;4.85;100.00
49216;BME280;45943;53.148;8.204;2023-01-28T09:19:34;103152.28;;;4.82;100.00
49216;BME280;45943;53.148;8.204;2023-01-28T09:22:02;103154.16;;;4.77;100.00
49216;BME280;45943;53.148;8.204;2023-01-28T09:24:29;103156.69;;;4.81;100.00
49216;BME280;45943;53.148;8.204;2023-01-28T09:26:54;103160.97;;;4.90;100.00
49216;BME280;45943;53.148;8.204;2023-01-28T09:29:20;103163.56;;;4.95;100.00
49216;BME280;45943;53.148;8.204;2023-01-28T09:31:46;103164.53;;;4.89;100.00
49216;BME280;45943;53.148;8.204;2023-01-28T09:34:12;103171.56;;;4.93;100.00
49216;BME280;45943;53.148;8.204;2023-01-28T09:36:39;103167.22;;;4.87;100.00
49216;BME280;45943;53.148;8.204;2023-01-28T09:39:05;103159.56;;;4.71;100.00
49216;BME280;45943;53.148;8.204;2023-01-28T09:44:34;103159.31;;;4.84;100.00
49216;BME280;45943;53.148;8.204;2023-01-28T09:47:08;103156.00;;;4.73;100.00
49216;BME280;45943;53.148;8.204;2023-01-28T09:49:49;103156.53;;;4.90;100.00
49216;BME280;45943;53.148;8.204;2023-01-28T09:52:18;103159.94;;;4.97;100.00
49216;BME280;45943;53.148;8.204;2023-01-28T09:54:49;103155.25;;;5.11;100.00
49216;BME280;45943;53.148;8.204;2023-01-28T09:57:30;103160.06;;;5.34;100.00
49216;BME280;45943;53.148;8.204;2023-01-28T10:00:13;103158.97;;;5.44;100.00
49216;BME280;45943;53.148;8.204;2023-01-28T10:05:52;103145.50;;;5.09;100.00
49216;BME280;45943;53.148;8.204;2023-01-28T10:22:39;103140.59;;;5.32;100.00
49216;BME280;45943;53.148;8.204;2023-01-28T10:25:16;103122.34;;;5.54;100.00
49216;BME280;45943;53.148;8.204;2023-01-28T10:27:44;103118.03;;;5.48;100.00
49216;BME280;45943;53.148;8.204;2023-01-28T10:30:16;103119.66;;;5.15;100.00
49216;BME280;45943;53.148;8.204;2023-01-28T10:32:51;103112.38;;;5.25;100.00
49216;BME280;45943;53.148;8.204;2023-01-28T10:35:21;103103.56;;;5.62;100.00
49216;BME280;45943;53.148;8.204;2023-01-28T10:37:48;103100.22;;;5.91;100.00
49216;BME280;45943;53.148;8.204;2023-01-28T10:40:17;103103.06;;;6.17;100.00
49216;BME280;45943;53.148;8.204;2023-01-28T10:42:43;103106.75;;;6.13;100.00
49216;BME280;45943;53.148;8.204;2023-01-28T10:45:17;103100.22;;;5.91;100.00
49216;BME280;45943;53.148;8.204;2023-01-28T10:47:50;103083.03;;;5.65;100.00
49216;BME280;45943;53.148;8.204;2023-01-28T10:50:22;103080.56;;;5.58;100.00
49216;BME280;45943;53.148;8.204;2023-01-28T10:52:51;103078.69;;;5.63;100.00
49216;BME280;45943;53.148;8.204;2023-01-28T10:55:20;103077.50;;;5.37;100.00
49216;BME280;45943;53.148;8.204;2023-01-28T10:57:46;103082.03;;;5.34;100.00
49216;BME280;45943;53.148;8.204;2023-01-28T11:02:42;103063.34;;;5.35;100.00
49216;BME280;45943;53.148;8.204;2023-01-28T11:07:41;103054.38;;;5.39;100.00
49216;BME280;45943;53.148;8.204;2023-01-28T11:13:05;103012.38;;;5.15;100.00
49216;BME280;45943;53.148;8.204;2023-01-28T11:15:46;103008.72;;;4.82;100.00
49216;BME280;45943;53.148;8.204;2023-01-28T11:18:16;102999.63;;;4.49;100.00
49216;BME280;45943;53.148;8.204;2023-01-28T11:20:50;103007.63;;;4.49;100.00
49216;BME280;45943;53.148;8.204;2023-01-28T11:23:28;103010.13;;;4.56;100.00
49216;BME280;45943;53.148;8.204;2023-01-28T11:26:01;103020.56;;;4.66;100.00
49216;BME280;45943;53.148;8.204;2023-01-28T11:28:40;103017.94;;;4.64;100.00
49216;BME280;45943;53.148;8.204;2023-01-28T11:31:08;103019.69;;;4.65;100.00
49216;BME280;45943;53.148;8.204;2023-01-28T11:33:42;103037.53;;;4.58;100.00
49216;BME280;45943;53.148;8.204;2023-01-28T11:36:14;103039.13;;;4.67;100.00
49216;BME280;45943;53.148;8.204;2023-01-28T11:38:49;103034.38;;;4.81;100.00
49216;BME280;45943;53.148;8.204;2023-01-28T11:41:24;103037.59;;;4.97;100.00
49216;BME280;45943;53.148;8.204;2023-01-28T11:43:58;103048.75;;;5.14;100.00
49216;BME280;45943;53.148;8.204;2023-01-28T11:46:45;103061.13;;;5.15;100.00
49216;BME280;45943;53.148;8.204;2023-01-28T11:49:20;103056.56;;;5.22;100.00
49216;BME280;45943;53.148;8.204;2023-01-28T11:57:21;103039.94;;;6.19;100.00
49216;BME280;45943;53.148;8.204;2023-01-28T12:02:45;103025.81;;;6.79;100.00
49216;BME280;45943;53.148;8.204;2023-01-28T12:08:04;103009.50;;;7.18;100.00
49216;BME280;45943;53.148;8.204;2023-01-28T12:10:47;103023.72;;;7.18;100.00
49216;BME280;45943;53.148;8.204;2023-01-28T12:13:28;103014.63;;;6.96;100.00
49216;BME280;45943;53.148;8.204;2023-01-28T12:16:11;103006.66;;;6.95;100.00
49216;BME280;45943;53.148;8.204;2023-01-28T12:18:51;103004.63;;;7.03;100.00
49216;BME280;45943;53.148;8.204;2023-01-28T12:26:53;102989.41;;;7.06;100.00
49216;BME280;45943;53.148;8.204;2023-01-28T12:35:16;102977.13;;;6.73;100.00
49216;BME280;45943;53.148;8.204;2023-01-28T12:38:27;102968.41;;;6.66;100.00
49216;BME280;45943;53.148;8.204;2023-01-28T12:41:09;102964.00;;;6.65;100.00
49216;BME280;45943;53.148;8.204;2023-01-28T12:43:52;102953.22;;;6.68;100.00
49216;BME280;45943;53.148;8.204;2023-01-28T12:49:00;102966.06;;;6.55;100.00
49216;BME280;45943;53.148;8.204;2023-01-28T12:51:41;102963.22;;;6.61;100.00
49216;BME280;45943;53.148;8.204;2023-01-28T12:54:18;102958.34;;;6.76;100.00
49216;BME280;45943;53.148;8.204;2023-01-28T12:56:58;102961.97;;;6.73;100.00
49216;BME280;45943;53.148;8.204;2023-01-28T12:59:27;102962.81;;;6.75;100.00
49216;BME280;45943;53.148;8.204;2023-01-28T13:02:11;102954.69;;;6.78;100.00
49216;BME280;45943;53.148;8.204;2023-01-28T13:04:49;102947.44;;;6.83;100.00
49216;BME280;45943;53.148;8.204;2023-01-28T13:07:23;102936.81;;;6.82;100.00
49216;BME280;45943;53.148;8.204;2023-01-28T13:09:54;102939.53;;;6.80;100.00
49216;BME280;45943;53.148;8.204;2023-01-28T13:12:29;102940.38;;;6.82;100.00
49216;BME280;45943;53.148;8.204;2023-01-28T13:14:57;102953.09;;;6.73;100.00
49216;BME280;45943;53.148;8.204;2023-01-28T13:17:25;102955.63;;;6.77;100.00
49216;BME280;45943;53.148;8.204;2023-01-28T13:19:53;102954.13;;;6.97;100.00
49216;BME280;45943;53.148;8.204;2023-01-28T13:22:33;102965.13;;;7.42;100.00
49216;BME280;45943;53.148;8.204;2023-01-28T13:30:50;102959.63;;;9.57;100.00
49216;BME280;45943;53.148;8.204;2023-01-28T13:33:25;102952.63;;;9.75;96.04
49216;BME280;45943;53.148;8.204;2023-01-28T13:35:54;102954.72;;;9.46;96.73
49216;BME280;45943;53.148;8.204;2023-01-28T13:38:21;102956.38;;;9.07;100.00
49216;BME280;45943;53.148;8.204;2023-01-28T13:40:57;102963.00;;;8.75;100.00
49216;BME280;45943;53.148;8.204;2023-01-28T13:46:06;102951.03;;;8.38;100.00
49216;BME280;45943;53.148;8.204;2023-01-28T13:51:09;102953.97;;;8.05;100.00
49216;BME280;45943;53.148;8.204;2023-01-28T13:56:33;102950.78;;;7.71;100.00
49216;BME280;45943;53.148;8.204;2023-01-28T14:13:46;102951.59;;;7.46;100.00
49216;BME280;45943;53.148;8.204;2023-01-28T14:17:06;102959.78;;;7.42;100.00
49216;BME280;45943;53.148;8.204;2023-01-28T14:19:41;102958.97;;;7.40;100.00
49216;BME280;45943;53.148;8.204;2023-01-28T14:22:12;102963.50;;;7.38;100.00
49216;BME280;45943;53.148;8.204;2023-01-28T14:24:43;102967.28;;;7.31;100.00
49216;BME280;45943;53.148;8.204;2023-01-28T14:29:46;102959.69;;;7.17;100.00
49216;BME280;45943;53.148;8.204;2023-01-28T14:32:27;102952.84;;;7.10;100.00
49216;BME280;45943;53.148;8.204;2023-01-28T14:35:08;102954.81;;;7.03;100.00
49216;BME280;45943;53.148;8.204;2023-01-28T14:37:34;102952.25;;;7.00;100.00
49216;BME280;45943;53.148;8.204;2023-01-28T14:40:05;102948.56;;;7.04;100.00
49216;BME280;45943;53.148;8.204;2023-01-28T14:42:36;102956.66;;;7.01;100.00
49216;BME280;45943;53.148;8.204;2023-01-28T14:56:34;102979.47;;;7.11;100.00